sensor_id;sensor_type;location;lat;lon;timestamp;P1;durP1;ratioP1;P2;durP2;ratioP2
79401;SDS011;68857;47.916;106.940;2023-09-08T00:02:11;2.97;;;1.63;;
79401;SDS011;68857;47.916;106.940;2023-09-08T00:04:38;2.22;;;1.67;;
79401;SDS011;68857;47.916;106.940;2023-09-08T00:07:05;3.42;;;2.28;;
79401;SDS011;68857;47.916;106.940;2023-09-08T00:09:31;3.70;;;2.10;;
79401;SDS011;68857;47.916;106.940;2023-09-08T00:11:58;3.63;;;1.65;;
79401;SDS011;68857;47.916;106.940;2023-09-08T00:14:24;2.33;;;1.45;;
79401;SDS011;68857;47.916;106.940;2023-09-08T00:16:51;3.70;;;1.75;;
79401;SDS011;68857;47.916;106.940;2023-09-08T00:19:21;6.03;;;1.65;;
79401;SDS011;68857;47.916;106.940;2023-09-08T00:21:49;3.75;;;2.20;;
79401;SDS011;68857;47.916;106.940;2023-09-08T00:24:15;3.92;;;1.65;;
79401;SDS011;68857;47.916;106.940;2023-09-08T00:26:43;2.70;;;1.98;;
79401;SDS011;68857;47.916;106.940;2023-09-08T00:29:09;3.75;;;2.35;;
79401;SDS011;68857;47.916;106.940;2023-09-08T00:31:36;4.80;;;1.98;;
79401;SDS011;68857;47.916;106.940;2023-09-08T00:34:02;4.30;;;2.15;;
79401;SDS011;68857;47.916;106.940;2023-09-08T00:36:29;3.67;;;2.05;;
79401;SDS011;68857;47.916;106.940;2023-09-08T00:38:56;3.38;;;1.80;;
79401;SDS011;68857;47.916;106.940;2023-09-08T00:41:22;2.50;;;1.83;;
79401;SDS011;68857;47.916;106.940;2023-09-08T00:43:49;2.63;;;1.75;;
79401;SDS011;68857;47.916;106.940;2023-09-08T00:46:16;5.07;;;1.85;;
79401;SDS011;68857;47.916;106.940;2023-09-08T00:48:43;3.67;;;1.92;;
79401;SDS011;68857;47.916;106.940;2023-09-08T00:51:09;2.78;;;1.60;;
79401;SDS011;68857;47.916;106.940;2023-09-08T00:53:36;2.38;;;1.75;;
79401;SDS011;68857;47.916;106.940;2023-09-08T00:56:03;3.38;;;1.50;;
79401;SDS011;68857;47.916;106.940;2023-09-08T00:58:30;3.58;;;2.45;;
79401;SDS011;68857;47.916;106.940;2023-09-08T01:00:57;4.15;;;2.65;;
79401;SDS011;68857;47.916;106.940;2023-09-08T01:03:24;2.30;;;1.73;;
79401;SDS011;68857;47.916;106.940;2023-09-08T01:05:51;4.00;;;1.98;;
79401;SDS011;68857;47.916;106.940;2023-09-08T01:08:17;2.17;;;1.90;;
79401;SDS011;68857;47.916;106.940;2023-09-08T01:10:45;3.33;;;1.65;;
79401;SDS011;68857;47.916;106.940;2023-09-08T01:13:11;3.85;;;1.70;;
79401;SDS011;68857;47.916;106.940;2023-09-08T01:15:38;3.67;;;1.52;;
79401;SDS011;68857;47.916;106.940;2023-09-08T01:18:05;4.65;;;2.83;;
79401;SDS011;68857;47.916;106.940;2023-09-08T01:23:38;2.47;;;1.83;;
79401;SDS011;68857;47.916;106.940;2023-09-08T01:26:09;3.60;;;1.88;;
79401;SDS011;68857;47.916;106.940;2023-09-08T01:28:36;1.85;;;1.30;;
79401;SDS011;68857;47.916;106.940;2023-09-08T01:31:05;3.60;;;1.85;;
79401;SDS011;68857;47.916;106.940;2023-09-08T01:33:32;5.13;;;1.48;;
79401;SDS011;68857;47.916;106.940;2023-09-08T01:35:59;5.57;;;2.13;;
79401;SDS011;68857;47.916;106.940;2023-09-08T01:38:26;3.55;;;1.98;;
79401;SDS011;68857;47.916;106.940;2023-09-08T01:40:53;2.90;;;1.50;;
79401;SDS011;68857;47.916;106.940;2023-09-08T01:43:19;3.05;;;1.50;;
79401;SDS011;68857;47.916;106.940;2023-09-08T01:45:46;2.85;;;1.85;;
79401;SDS011;68857;47.916;106.940;2023-09-08T01:48:13;3.22;;;1.50;;
79401;SDS011;68857;47.916;106.940;2023-09-08T01:50:39;3.15;;;1.73;;
79401;SDS011;68857;47.916;106.940;2023-09-08T01:53:06;2.40;;;1.30;;
79401;SDS011;68857;47.916;106.940;2023-09-08T01:55:32;4.00;;;2.00;;
79401;SDS011;68857;47.916;106.940;2023-09-08T01:57:59;2.70;;;1.60;;
79401;SDS011;68857;47.916;106.940;2023-09-08T02:00:26;4.50;;;1.40;;
79401;SDS011;68857;47.916;106.940;2023-09-08T02:02:52;3.50;;;1.25;;
79401;SDS011;68857;47.916;106.940;2023-09-08T02:05:19;3.13;;;1.77;;
79401;SDS011;68857;47.916;106.940;2023-09-08T02:07:45;3.58;;;1.30;;
79401;SDS011;68857;47.916;106.940;2023-09-08T02:10:12;2.88;;;1.38;;
79401;SDS011;68857;47.916;106.940;2023-09-08T02:12:38;4.25;;;2.00;;
79401;SDS011;68857;47.916;106.940;2023-09-08T02:15:05;5.05;;;1.58;;
79401;SDS011;68857;47.916;106.940;2023-09-08T02:17:32;2.90;;;1.48;;
79401;SDS011;68857;47.916;106.940;2023-09-08T02:19:58;2.60;;;2.13;;
79401;SDS011;68857;47.916;106.940;2023-09-08T02:22:25;3.10;;;1.27;;
79401;SDS011;68857;47.916;106.940;2023-09-08T02:24:52;3.33;;;1.73;;
79401;SDS011;68857;47.916;106.940;2023-09-08T02:27:18;2.22;;;1.40;;
79401;SDS011;68857;47.916;106.940;2023-09-08T02:29:46;2.70;;;1.35;;
79401;SDS011;68857;47.916;106.940;2023-09-08T02:32:12;1.95;;;1.52;;
79401;SDS011;68857;47.916;106.940;2023-09-08T02:34:39;3.65;;;1.90;;
79401;SDS011;68857;47.916;106.940;2023-09-08T02:37:07;2.53;;;1.75;;
79401;SDS011;68857;47.916;106.940;2023-09-08T02:39:34;2.70;;;1.85;;
79401;SDS011;68857;47.916;106.940;2023-09-08T02:42:01;3.10;;;1.17;;
79401;SDS011;68857;47.916;106.940;2023-09-08T02:44:27;2.13;;;1.52;;
79401;SDS011;68857;47.916;106.940;2023-09-08T02:46:54;2.42;;;1.45;;
79401;SDS011;68857;47.916;106.940;2023-09-08T02:49:21;2.75;;;1.55;;
79401;SDS011;68857;47.916;106.940;2023-09-08T02:51:47;2.63;;;1.45;;
79401;SDS011;68857;47.916;106.940;2023-09-08T02:54:14;3.38;;;1.30;;
79401;SDS011;68857;47.916;106.940;2023-09-08T02:56:41;2.63;;;1.38;;
79401;SDS011;68857;47.916;106.940;2023-09-08T02:59:07;3.92;;;1.45;;
79401;SDS011;68857;47.916;106.940;2023-09-08T03:01:34;3.20;;;1.42;;
79401;SDS011;68857;47.916;106.940;2023-09-08T03:04:00;3.25;;;1.52;;
79401;SDS011;68857;47.916;106.940;2023-09-08T03:06:26;4.50;;;1.48;;
79401;SDS011;68857;47.916;106.940;2023-09-08T03:08:53;2.63;;;1.45;;
79401;SDS011;68857;47.916;106.940;2023-09-08T03:11:20;4.20;;;1.75;;
79401;SDS011;68857;47.916;106.940;2023-09-08T03:13:46;3.10;;;0.98;;
79401;SDS011;68857;47.916;106.940;2023-09-08T03:16:12;2.75;;;1.20;;
79401;SDS011;68857;47.916;106.940;2023-09-08T03:18:39;2.20;;;1.50;;
79401;SDS011;68857;47.916;106.940;2023-09-08T03:21:06;3.13;;;1.63;;
79401;SDS011;68857;47.916;106.940;2023-09-08T03:23:36;1.75;;;1.20;;
79401;SDS011;68857;47.916;106.940;2023-09-08T03:26:03;1.73;;;1.33;;
79401;SDS011;68857;47.916;106.940;2023-09-08T03:28:30;2.15;;;1.30;;
79401;SDS011;68857;47.916;106.940;2023-09-08T03:30:56;2.47;;;1.13;;
79401;SDS011;68857;47.916;106.940;2023-09-08T03:33:23;3.25;;;1.20;;
79401;SDS011;68857;47.916;106.940;2023-09-08T03:35:49;3.53;;;1.38;;
79401;SDS011;68857;47.916;106.940;2023-09-08T03:38:16;2.20;;;1.38;;
79401;SDS011;68857;47.916;106.940;2023-09-08T03:40:42;1.85;;;1.15;;
79401;SDS011;68857;47.916;106.940;2023-09-08T03:43:09;2.50;;;1.10;;
79401;SDS011;68857;47.916;106.940;2023-09-08T03:45:35;1.75;;;1.10;;
79401;SDS011;68857;47.916;106.940;2023-09-08T03:48:02;1.65;;;1.17;;
79401;SDS011;68857;47.916;106.940;2023-09-08T03:50:29;2.72;;;1.55;;
79401;SDS011;68857;47.916;106.940;2023-09-08T03:52:56;2.13;;;1.15;;
79401;SDS011;68857;47.916;106.940;2023-09-08T03:55:22;2.42;;;1.65;;
79401;SDS011;68857;47.916;106.940;2023-09-08T03:57:49;1.52;;;1.13;;
79401;SDS011;68857;47.916;106.940;2023-09-08T04:00:15;2.47;;;1.08;;
79401;SDS011;68857;47.916;106.940;2023-09-08T04:02:46;1.75;;;1.00;;
79401;SDS011;68857;47.916;106.940;2023-09-08T04:05:13;2.80;;;1.08;;
79401;SDS011;68857;47.916;106.940;2023-09-08T04:07:40;2.17;;;1.13;;
79401;SDS011;68857;47.916;106.940;2023-09-08T04:10:07;1.65;;;1.33;;
79401;SDS011;68857;47.916;106.940;2023-09-08T04:12:34;1.95;;;0.95;;
79401;SDS011;68857;47.916;106.940;2023-09-08T04:15:00;2.47;;;1.33;;
79401;SDS011;68857;47.916;106.940;2023-09-08T04:17:27;2.45;;;1.02;;
79401;SDS011;68857;47.916;106.940;2023-09-08T04:19:54;1.48;;;1.13;;
79401;SDS011;68857;47.916;106.940;2023-09-08T04:22:21;4.07;;;2.00;;
79401;SDS011;68857;47.916;106.940;2023-09-08T04:24:47;2.10;;;1.15;;
79401;SDS011;68857;47.916;106.940;2023-09-08T04:27:14;2.63;;;1.00;;
79401;SDS011;68857;47.916;106.940;2023-09-08T04:29:40;1.85;;;1.58;;
79401;SDS011;68857;47.916;106.940;2023-09-08T04:32:07;1.35;;;0.60;;
79401;SDS011;68857;47.916;106.940;2023-09-08T04:34:39;3.17;;;1.25;;
79401;SDS011;68857;47.916;106.940;2023-09-08T04:37:06;2.55;;;1.42;;
79401;SDS011;68857;47.916;106.940;2023-09-08T04:39:33;2.70;;;1.50;;
79401;SDS011;68857;47.916;106.940;2023-09-08T04:42:00;2.80;;;1.10;;
79401;SDS011;68857;47.916;106.940;2023-09-08T04:44:27;1.40;;;0.85;;
79401;SDS011;68857;47.916;106.940;2023-09-08T04:46:53;1.73;;;0.85;;
79401;SDS011;68857;47.916;106.940;2023-09-08T04:49:20;1.67;;;0.82;;
79401;SDS011;68857;47.916;106.940;2023-09-08T04:51:46;1.65;;;0.60;;
79401;SDS011;68857;47.916;106.940;2023-09-08T04:54:13;2.83;;;0.80;;
79401;SDS011;68857;47.916;106.940;2023-09-08T04:56:39;1.75;;;1.40;;
79401;SDS011;68857;47.916;106.940;2023-09-08T04:59:06;1.38;;;1.25;;
79401;SDS011;68857;47.916;106.940;2023-09-08T05:01:33;2.13;;;1.92;;
79401;SDS011;68857;47.916;106.940;2023-09-08T05:04:02;3.15;;;0.95;;
79401;SDS011;68857;47.916;106.940;2023-09-08T05:06:29;1.95;;;0.77;;
79401;SDS011;68857;47.916;106.940;2023-09-08T05:08:57;3.63;;;1.15;;
79401;SDS011;68857;47.916;106.940;2023-09-08T05:11:24;1.65;;;1.00;;
79401;SDS011;68857;47.916;106.940;2023-09-08T05:13:51;2.95;;;2.30;;
79401;SDS011;68857;47.916;106.940;2023-09-08T05:16:18;1.20;;;0.90;;
79401;SDS011;68857;47.916;106.940;2023-09-08T05:18:51;2.35;;;1.33;;
79401;SDS011;68857;47.916;106.940;2023-09-08T05:21:18;3.90;;;1.45;;
79401;SDS011;68857;47.916;106.940;2023-09-08T05:23:44;1.90;;;1.02;;
79401;SDS011;68857;47.916;106.940;2023-09-08T05:26:11;2.00;;;0.80;;
79401;SDS011;68857;47.916;106.940;2023-09-08T05:28:37;2.38;;;1.10;;
79401;SDS011;68857;47.916;106.940;2023-09-08T05:31:04;2.50;;;1.20;;
79401;SDS011;68857;47.916;106.940;2023-09-08T05:33:31;1.35;;;1.15;;
79401;SDS011;68857;47.916;106.940;2023-09-08T05:35:57;2.63;;;2.08;;
79401;SDS011;68857;47.916;106.940;2023-09-08T05:38:24;2.25;;;1.10;;
79401;SDS011;68857;47.916;106.940;2023-09-08T05:40:53;1.83;;;1.42;;
79401;SDS011;68857;47.916;106.940;2023-09-08T05:43:20;1.42;;;0.65;;
79401;SDS011;68857;47.916;106.940;2023-09-08T05:45:47;2.13;;;1.15;;
79401;SDS011;68857;47.916;106.940;2023-09-08T05:48:13;1.90;;;1.13;;
79401;SDS011;68857;47.916;106.940;2023-09-08T05:50:40;1.50;;;0.82;;
79401;SDS011;68857;47.916;106.940;2023-09-08T05:53:06;1.98;;;1.00;;
79401;SDS011;68857;47.916;106.940;2023-09-08T05:55:33;1.23;;;0.98;;
79401;SDS011;68857;47.916;106.940;2023-09-08T05:58:00;1.77;;;0.93;;
79401;SDS011;68857;47.916;106.940;2023-09-08T06:00:27;2.65;;;1.00;;
79401;SDS011;68857;47.916;106.940;2023-09-08T06:02:53;3.08;;;1.23;;
79401;SDS011;68857;47.916;106.940;2023-09-08T06:05:20;1.23;;;0.77;;
79401;SDS011;68857;47.916;106.940;2023-09-08T06:07:46;1.08;;;0.82;;
79401;SDS011;68857;47.916;106.940;2023-09-08T06:10:14;1.20;;;0.90;;
79401;SDS011;68857;47.916;106.940;2023-09-08T06:12:41;1.17;;;0.77;;
79401;SDS011;68857;47.916;106.940;2023-09-08T06:15:08;1.90;;;0.73;;
79401;SDS011;68857;47.916;106.940;2023-09-08T06:17:35;2.28;;;0.90;;
79401;SDS011;68857;47.916;106.940;2023-09-08T06:20:01;2.20;;;0.80;;
79401;SDS011;68857;47.916;106.940;2023-09-08T06:22:28;1.20;;;0.88;;
79401;SDS011;68857;47.916;106.940;2023-09-08T06:24:55;1.70;;;0.93;;
79401;SDS011;68857;47.916;106.940;2023-09-08T06:27:21;2.20;;;0.70;;
79401;SDS011;68857;47.916;106.940;2023-09-08T06:29:48;0.95;;;0.60;;
79401;SDS011;68857;47.916;106.940;2023-09-08T06:32:15;1.13;;;1.00;;
79401;SDS011;68857;47.916;106.940;2023-09-08T06:34:41;2.15;;;0.82;;
79401;SDS011;68857;47.916;106.940;2023-09-08T06:37:08;2.65;;;1.83;;
79401;SDS011;68857;47.916;106.940;2023-09-08T06:39:34;3.05;;;1.10;;
79401;SDS011;68857;47.916;106.940;2023-09-08T06:42:02;1.00;;;0.80;;
79401;SDS011;68857;47.916;106.940;2023-09-08T06:44:28;1.55;;;0.73;;
79401;SDS011;68857;47.916;106.940;2023-09-08T06:46:55;2.25;;;0.82;;
79401;SDS011;68857;47.916;106.940;2023-09-08T06:49:22;1.52;;;0.82;;
79401;SDS011;68857;47.916;106.940;2023-09-08T06:51:48;2.17;;;0.93;;
79401;SDS011;68857;47.916;106.940;2023-09-08T06:54:15;0.95;;;0.70;;
79401;SDS011;68857;47.916;106.940;2023-09-08T06:56:42;2.92;;;0.90;;
79401;SDS011;68857;47.916;106.940;2023-09-08T06:59:08;3.53;;;0.90;;
79401;SDS011;68857;47.916;106.940;2023-09-08T07:01:35;2.25;;;0.73;;
79401;SDS011;68857;47.916;106.940;2023-09-08T07:04:01;1.55;;;0.80;;
79401;SDS011;68857;47.916;106.940;2023-09-08T07:06:28;2.20;;;0.63;;
79401;SDS011;68857;47.916;106.940;2023-09-08T07:08:54;1.90;;;0.90;;
79401;SDS011;68857;47.916;106.940;2023-09-08T07:11:21;1.23;;;0.60;;
79401;SDS011;68857;47.916;106.940;2023-09-08T07:13:48;2.50;;;1.20;;
79401;SDS011;68857;47.916;106.940;2023-09-08T07:16:14;1.65;;;0.70;;
79401;SDS011;68857;47.916;106.940;2023-09-08T07:18:41;2.60;;;1.17;;
79401;SDS011;68857;47.916;106.940;2023-09-08T07:21:09;2.40;;;1.60;;
79401;SDS011;68857;47.916;106.940;2023-09-08T07:23:35;1.40;;;0.82;;
79401;SDS011;68857;47.916;106.940;2023-09-08T07:26:02;2.65;;;0.90;;
79401;SDS011;68857;47.916;106.940;2023-09-08T07:28:28;2.42;;;1.02;;
79401;SDS011;68857;47.916;106.940;2023-09-08T07:31:00;2.67;;;1.83;;
79401;SDS011;68857;47.916;106.940;2023-09-08T07:33:27;3.72;;;1.33;;
79401;SDS011;68857;47.916;106.940;2023-09-08T07:35:54;3.72;;;0.95;;
79401;SDS011;68857;47.916;106.940;2023-09-08T07:38:20;3.10;;;1.10;;
79401;SDS011;68857;47.916;106.940;2023-09-08T07:40:46;1.73;;;1.10;;
79401;SDS011;68857;47.916;106.940;2023-09-08T07:43:13;3.30;;;0.70;;
79401;SDS011;68857;47.916;106.940;2023-09-08T07:45:39;2.88;;;1.02;;
79401;SDS011;68857;47.916;106.940;2023-09-08T07:48:06;3.00;;;1.13;;
79401;SDS011;68857;47.916;106.940;2023-09-08T07:50:33;4.28;;;1.92;;
79401;SDS011;68857;47.916;106.940;2023-09-08T07:52:59;3.45;;;1.20;;
79401;SDS011;68857;47.916;106.940;2023-09-08T07:55:26;3.90;;;1.30;;
79401;SDS011;68857;47.916;106.940;2023-09-08T07:57:52;7.55;;;2.00;;
79401;SDS011;68857;47.916;106.940;2023-09-08T08:00:19;7.25;;;1.55;;
79401;SDS011;68857;47.916;106.940;2023-09-08T08:02:47;3.67;;;1.27;;
79401;SDS011;68857;47.916;106.940;2023-09-08T08:05:14;5.03;;;1.60;;
79401;SDS011;68857;47.916;106.940;2023-09-08T08:07:41;5.30;;;2.22;;
79401;SDS011;68857;47.916;106.940;2023-09-08T08:10:08;5.75;;;2.35;;
79401;SDS011;68857;47.916;106.940;2023-09-08T08:12:39;4.57;;;1.13;;
79401;SDS011;68857;47.916;106.940;2023-09-08T08:15:06;3.72;;;1.52;;
79401;SDS011;68857;47.916;106.940;2023-09-08T08:17:32;6.40;;;1.55;;
79401;SDS011;68857;47.916;106.940;2023-09-08T08:19:59;2.40;;;1.48;;
79401;SDS011;68857;47.916;106.940;2023-09-08T08:22:38;3.40;;;1.38;;
79401;SDS011;68857;47.916;106.940;2023-09-08T08:25:05;4.40;;;1.33;;
79401;SDS011;68857;47.916;106.940;2023-09-08T08:27:31;3.90;;;1.08;;
79401;SDS011;68857;47.916;106.940;2023-09-08T08:29:58;3.83;;;1.40;;
79401;SDS011;68857;47.916;106.940;2023-09-08T08:32:26;5.35;;;1.60;;
79401;SDS011;68857;47.916;106.940;2023-09-08T08:34:53;3.80;;;1.33;;
79401;SDS011;68857;47.916;106.940;2023-09-08T08:37:19;2.92;;;1.00;;
79401;SDS011;68857;47.916;106.940;2023-09-08T08:39:46;4.50;;;1.23;;
79401;SDS011;68857;47.916;106.940;2023-09-08T08:42:13;5.10;;;1.15;;
79401;SDS011;68857;47.916;106.940;2023-09-08T08:44:40;4.60;;;1.50;;
79401;SDS011;68857;47.916;106.940;2023-09-08T08:47:07;3.55;;;1.38;;
79401;SDS011;68857;47.916;106.940;2023-09-08T08:49:34;5.15;;;1.60;;
79401;SDS011;68857;47.916;106.940;2023-09-08T08:52:01;2.97;;;1.27;;
79401;SDS011;68857;47.916;106.940;2023-09-08T08:54:37;5.25;;;1.63;;
79401;SDS011;68857;47.916;106.940;2023-09-08T08:57:04;3.75;;;1.38;;
79401;SDS011;68857;47.916;106.940;2023-09-08T08:59:31;4.10;;;1.15;;
79401;SDS011;68857;47.916;106.940;2023-09-08T09:01:58;2.85;;;1.10;;
79401;SDS011;68857;47.916;106.940;2023-09-08T09:04:25;5.80;;;2.20;;
79401;SDS011;68857;47.916;106.940;2023-09-08T09:06:54;6.32;;;2.33;;
79401;SDS011;68857;47.916;106.940;2023-09-08T09:09:21;6.35;;;2.15;;
79401;SDS011;68857;47.916;106.940;2023-09-08T09:11:48;7.05;;;2.63;;
79401;SDS011;68857;47.916;106.940;2023-09-08T09:14:15;8.73;;;2.15;;
79401;SDS011;68857;47.916;106.940;2023-09-08T09:16:43;15.88;;;3.83;;
79401;SDS011;68857;47.916;106.940;2023-09-08T09:19:17;13.18;;;3.78;;
79401;SDS011;68857;47.916;106.940;2023-09-08T09:21:51;14.07;;;3.53;;
79401;SDS011;68857;47.916;106.940;2023-09-08T09:24:30;14.05;;;3.40;;
79401;SDS011;68857;47.916;106.940;2023-09-08T09:26:58;14.15;;;3.88;;
79401;SDS011;68857;47.916;106.940;2023-09-08T09:29:25;12.60;;;6.75;;
79401;SDS011;68857;47.916;106.940;2023-09-08T09:32:05;16.92;;;4.25;;
79401;SDS011;68857;47.916;106.940;2023-09-08T09:34:35;14.45;;;4.05;;
79401;SDS011;68857;47.916;106.940;2023-09-08T09:37:01;12.55;;;4.03;;
79401;SDS011;68857;47.916;106.940;2023-09-08T09:39:30;15.15;;;4.05;;
79401;SDS011;68857;47.916;106.940;2023-09-08T09:41:57;15.02;;;4.05;;
79401;SDS011;68857;47.916;106.940;2023-09-08T09:44:24;13.63;;;4.70;;
79401;SDS011;68857;47.916;106.940;2023-09-08T09:46:51;15.40;;;4.03;;
79401;SDS011;68857;47.916;106.940;2023-09-08T09:49:18;12.55;;;4.55;;
79401;SDS011;68857;47.916;106.940;2023-09-08T09:51:46;9.45;;;3.20;;
79401;SDS011;68857;47.916;106.940;2023-09-08T09:54:13;8.23;;;3.55;;
79401;SDS011;68857;47.916;106.940;2023-09-08T09:56:40;12.93;;;3.15;;
79401;SDS011;68857;47.916;106.940;2023-09-08T09:59:10;9.85;;;3.10;;
79401;SDS011;68857;47.916;106.940;2023-09-08T10:01:38;8.85;;;3.30;;
79401;SDS011;68857;47.916;106.940;2023-09-08T10:04:05;9.38;;;2.53;;
79401;SDS011;68857;47.916;106.940;2023-09-08T10:06:35;7.22;;;2.03;;
79401;SDS011;68857;47.916;106.940;2023-09-08T10:09:03;8.30;;;2.60;;
79401;SDS011;68857;47.916;106.940;2023-09-08T10:11:34;10.82;;;2.75;;
79401;SDS011;68857;47.916;106.940;2023-09-08T10:14:01;7.07;;;2.58;;
79401;SDS011;68857;47.916;106.940;2023-09-08T10:16:29;5.75;;;2.00;;
79401;SDS011;68857;47.916;106.940;2023-09-08T10:18:57;11.68;;;1.98;;
79401;SDS011;68857;47.916;106.940;2023-09-08T10:21:25;7.53;;;2.03;;
79401;SDS011;68857;47.916;106.940;2023-09-08T10:23:54;10.18;;;2.67;;
79401;SDS011;68857;47.916;106.940;2023-09-08T10:26:24;6.78;;;2.17;;
79401;SDS011;68857;47.916;106.940;2023-09-08T10:28:53;5.07;;;1.88;;
79401;SDS011;68857;47.916;106.940;2023-09-08T10:31:24;4.32;;;2.05;;
79401;SDS011;68857;47.916;106.940;2023-09-08T10:33:53;6.82;;;2.90;;
79401;SDS011;68857;47.916;106.940;2023-09-08T10:36:20;10.80;;;2.30;;
79401;SDS011;68857;47.916;106.940;2023-09-08T10:38:47;3.97;;;1.58;;
79401;SDS011;68857;47.916;106.940;2023-09-08T10:43:42;6.03;;;1.58;;
79401;SDS011;68857;47.916;106.940;2023-09-08T10:46:09;4.43;;;1.38;;
79401;SDS011;68857;47.916;106.940;2023-09-08T10:48:45;7.53;;;2.20;;
79401;SDS011;68857;47.916;106.940;2023-09-08T10:51:15;4.50;;;2.10;;
79401;SDS011;68857;47.916;106.940;2023-09-08T10:53:46;3.28;;;1.52;;
79401;SDS011;68857;47.916;106.940;2023-09-08T10:56:15;5.65;;;1.88;;
79401;SDS011;68857;47.916;106.940;2023-09-08T10:58:42;8.13;;;1.88;;
79401;SDS011;68857;47.916;106.940;2023-09-08T11:01:27;3.25;;;1.38;;
79401;SDS011;68857;47.916;106.940;2023-09-08T11:03:53;5.65;;;1.70;;
79401;SDS011;68857;47.916;106.940;2023-09-08T11:06:20;3.65;;;1.88;;
79401;SDS011;68857;47.916;106.940;2023-09-08T11:08:47;4.45;;;1.33;;
79401;SDS011;68857;47.916;106.940;2023-09-08T11:11:15;3.53;;;1.65;;
79401;SDS011;68857;47.916;106.940;2023-09-08T11:13:42;4.43;;;1.63;;
79401;SDS011;68857;47.916;106.940;2023-09-08T11:16:13;3.33;;;1.50;;
79401;SDS011;68857;47.916;106.940;2023-09-08T11:18:40;4.05;;;1.25;;
79401;SDS011;68857;47.916;106.940;2023-09-08T11:21:08;6.00;;;1.58;;
79401;SDS011;68857;47.916;106.940;2023-09-08T11:23:35;3.80;;;1.58;;
79401;SDS011;68857;47.916;106.940;2023-09-08T11:26:02;5.95;;;1.73;;
79401;SDS011;68857;47.916;106.940;2023-09-08T11:28:28;5.35;;;1.65;;
79401;SDS011;68857;47.916;106.940;2023-09-08T11:30:55;4.30;;;1.70;;
79401;SDS011;68857;47.916;106.940;2023-09-08T11:33:24;4.30;;;1.73;;
79401;SDS011;68857;47.916;106.940;2023-09-08T11:35:54;5.97;;;1.63;;
79401;SDS011;68857;47.916;106.940;2023-09-08T11:38:24;9.05;;;1.95;;
79401;SDS011;68857;47.916;106.940;2023-09-08T11:40:51;6.60;;;1.70;;
79401;SDS011;68857;47.916;106.940;2023-09-08T11:43:18;6.78;;;1.92;;
79401;SDS011;68857;47.916;106.940;2023-09-08T11:45:45;5.30;;;1.83;;
79401;SDS011;68857;47.916;106.940;2023-09-08T11:48:11;6.93;;;2.60;;
79401;SDS011;68857;47.916;106.940;2023-09-08T11:50:41;6.35;;;3.15;;
79401;SDS011;68857;47.916;106.940;2023-09-08T11:53:08;6.72;;;1.88;;
79401;SDS011;68857;47.916;106.940;2023-09-08T11:55:34;4.22;;;2.03;;
79401;SDS011;68857;47.916;106.940;2023-09-08T11:58:04;7.43;;;1.77;;
79401;SDS011;68857;47.916;106.940;2023-09-08T12:00:30;8.82;;;2.20;;
79401;SDS011;68857;47.916;106.940;2023-09-08T12:03:19;6.45;;;2.08;;
79401;SDS011;68857;47.916;106.940;2023-09-08T12:05:44;5.15;;;2.33;;
79401;SDS011;68857;47.916;106.940;2023-09-08T12:08:16;4.93;;;1.52;;
79401;SDS011;68857;47.916;106.940;2023-09-08T12:10:43;5.60;;;1.20;;
79401;SDS011;68857;47.916;106.940;2023-09-08T12:13:10;4.82;;;2.28;;
79401;SDS011;68857;47.916;106.940;2023-09-08T12:15:39;5.63;;;1.73;;
79401;SDS011;68857;47.916;106.940;2023-09-08T12:18:07;6.60;;;2.95;;
79401;SDS011;68857;47.916;106.940;2023-09-08T12:20:34;6.10;;;2.08;;
79401;SDS011;68857;47.916;106.940;2023-09-08T12:23:02;5.75;;;2.25;;
79401;SDS011;68857;47.916;106.940;2023-09-08T12:25:29;5.95;;;2.15;;
79401;SDS011;68857;47.916;106.940;2023-09-08T12:28:00;8.05;;;2.40;;
79401;SDS011;68857;47.916;106.940;2023-09-08T12:30:28;6.10;;;2.17;;
79401;SDS011;68857;47.916;106.940;2023-09-08T12:32:58;5.53;;;2.28;;
79401;SDS011;68857;47.916;106.940;2023-09-08T12:35:25;7.32;;;2.70;;
79401;SDS011;68857;47.916;106.940;2023-09-08T12:37:53;4.85;;;2.58;;
79401;SDS011;68857;47.916;106.940;2023-09-08T12:40:19;7.15;;;2.45;;
79401;SDS011;68857;47.916;106.940;2023-09-08T12:42:46;7.57;;;2.65;;
79401;SDS011;68857;47.916;106.940;2023-09-08T12:45:13;6.28;;;2.33;;
79401;SDS011;68857;47.916;106.940;2023-09-08T12:47:40;5.13;;;3.22;;
79401;SDS011;68857;47.916;106.940;2023-09-08T12:50:06;7.32;;;2.45;;
79401;SDS011;68857;47.916;106.940;2023-09-08T12:52:33;7.60;;;2.72;;
79401;SDS011;68857;47.916;106.940;2023-09-08T12:55:00;6.43;;;2.25;;
79401;SDS011;68857;47.916;106.940;2023-09-08T12:57:26;6.40;;;2.60;;
79401;SDS011;68857;47.916;106.940;2023-09-08T12:59:55;4.82;;;2.55;;
79401;SDS011;68857;47.916;106.940;2023-09-08T13:02:22;5.82;;;3.22;;
79401;SDS011;68857;47.916;106.940;2023-09-08T13:04:48;4.95;;;2.65;;
79401;SDS011;68857;47.916;106.940;2023-09-08T13:07:15;6.80;;;3.35;;
79401;SDS011;68857;47.916;106.940;2023-09-08T13:09:42;7.22;;;2.88;;
79401;SDS011;68857;47.916;106.940;2023-09-08T13:12:08;6.38;;;2.95;;
79401;SDS011;68857;47.916;106.940;2023-09-08T13:14:36;7.25;;;3.10;;
79401;SDS011;68857;47.916;106.940;2023-09-08T13:17:03;6.03;;;2.97;;
79401;SDS011;68857;47.916;106.940;2023-09-08T13:19:30;6.63;;;3.55;;
79401;SDS011;68857;47.916;106.940;2023-09-08T13:21:57;10.52;;;3.05;;
79401;SDS011;68857;47.916;106.940;2023-09-08T13:24:23;6.20;;;2.40;;
79401;SDS011;68857;47.916;106.940;2023-09-08T13:26:50;5.97;;;3.42;;
79401;SDS011;68857;47.916;106.940;2023-09-08T13:29:16;6.70;;;3.65;;
79401;SDS011;68857;47.916;106.940;2023-09-08T13:31:44;6.25;;;3.40;;
79401;SDS011;68857;47.916;106.940;2023-09-08T13:34:10;7.30;;;2.92;;
79401;SDS011;68857;47.916;106.940;2023-09-08T13:36:37;4.90;;;2.15;;
79401;SDS011;68857;47.916;106.940;2023-09-08T13:39:03;8.65;;;2.80;;
79401;SDS011;68857;47.916;106.940;2023-09-08T13:41:46;5.55;;;2.60;;
79401;SDS011;68857;47.916;106.940;2023-09-08T13:46:39;5.10;;;2.83;;
79401;SDS011;68857;47.916;106.940;2023-09-08T13:49:05;6.88;;;2.78;;
79401;SDS011;68857;47.916;106.940;2023-09-08T13:51:32;6.78;;;3.47;;
79401;SDS011;68857;47.916;106.940;2023-09-08T13:53:59;6.43;;;3.13;;
79401;SDS011;68857;47.916;106.940;2023-09-08T13:56:26;6.43;;;3.42;;
79401;SDS011;68857;47.916;106.940;2023-09-08T13:58:52;7.68;;;3.65;;
79401;SDS011;68857;47.916;106.940;2023-09-08T14:01:19;7.57;;;2.67;;
79401;SDS011;68857;47.916;106.940;2023-09-08T14:03:46;6.40;;;3.03;;
79401;SDS011;68857;47.916;106.940;2023-09-08T14:06:17;6.57;;;2.70;;
79401;SDS011;68857;47.916;106.940;2023-09-08T14:08:44;5.70;;;2.63;;
79401;SDS011;68857;47.916;106.940;2023-09-08T14:11:11;6.22;;;3.50;;
79401;SDS011;68857;47.916;106.940;2023-09-08T14:13:37;4.03;;;2.53;;
79401;SDS011;68857;47.916;106.940;2023-09-08T14:16:04;10.18;;;3.80;;
79401;SDS011;68857;47.916;106.940;2023-09-08T14:18:31;6.18;;;2.67;;
79401;SDS011;68857;47.916;106.940;2023-09-08T14:20:58;5.65;;;2.55;;
79401;SDS011;68857;47.916;106.940;2023-09-08T14:23:24;7.30;;;2.78;;
79401;SDS011;68857;47.916;106.940;2023-09-08T14:25:51;5.75;;;2.85;;
79401;SDS011;68857;47.916;106.940;2023-09-08T14:28:18;4.95;;;2.70;;
79401;SDS011;68857;47.916;106.940;2023-09-08T14:30:44;5.28;;;2.55;;